createdAt,value
2023-12-23T00:00:19.636Z,18.54
2023-12-23T00:01:19.641Z,18.52
2023-12-23T00:02:19.630Z,18.54
2023-12-23T00:03:19.593Z,18.55
2023-12-23T00:04:19.577Z,18.54
2023-12-23T00:05:19.684Z,18.52
2023-12-23T00:06:19.627Z,18.52
2023-12-23T00:07:19.551Z,18.51
2023-12-23T00:08:19.628Z,18.52
2023-12-23T00:09:19.527Z,18.51
2023-12-23T00:10:19.573Z,18.51
2023-12-23T00:11:19.488Z,18.52
2023-12-23T00:12:19.532Z,18.52
2023-12-23T00:13:19.457Z,18.52
2023-12-23T00:14:19.508Z,18.52
2023-12-23T00:15:19.468Z,18.54
2023-12-23T00:16:19.425Z,18.52
2023-12-23T00:17:19.567Z,18.52
2023-12-23T00:18:19.572Z,18.51
2023-12-23T00:19:19.561Z,18.51
2023-12-23T00:20:19.662Z,18.52
2023-12-23T00:21:19.439Z,18.51
2023-12-23T00:22:19.373Z,18.52
2023-12-23T00:23:19.443Z,18.51
2023-12-23T00:24:19.402Z,18.52
2023-12-23T00:25:19.371Z,18.51
2023-12-23T00:26:19.318Z,18.51
2023-12-23T00:27:19.307Z,18.52
2023-12-23T00:28:19.305Z,18.51
2023-12-23T00:29:19.287Z,18.52
2023-12-23T00:30:19.328Z,18.51
2023-12-23T00:31:19.263Z,18.51
2023-12-23T00:32:19.284Z,18.52
2023-12-23T00:33:19.270Z,18.50
2023-12-23T00:34:19.243Z,18.50
2023-12-23T00:35:19.393Z,18.51
2023-12-23T00:36:19.212Z,18.51
2023-12-23T00:37:19.256Z,18.51
2023-12-23T00:38:19.235Z,18.52
2023-12-23T00:39:19.205Z,18.51
2023-12-23T00:40:19.193Z,18.51
2023-12-23T00:41:19.286Z,18.51
2023-12-23T00:42:19.159Z,18.51
2023-12-23T00:43:19.134Z,18.51
2023-12-23T00:44:19.208Z,18.50
2023-12-23T00:45:19.135Z,18.51
2023-12-23T00:46:19.106Z,18.52
2023-12-23T00:47:19.109Z,18.51
2023-12-23T00:48:19.199Z,18.51
2023-12-23T00:49:19.176Z,18.51
2023-12-23T00:50:19.124Z,18.51
2023-12-23T00:51:19.057Z,18.50
2023-12-23T00:52:19.050Z,18.50
2023-12-23T00:53:19.192Z,18.50
2023-12-23T00:54:19.050Z,18.52
2023-12-23T00:55:19.027Z,18.50
2023-12-23T00:56:19.053Z,18.50
2023-12-23T00:57:18.986Z,18.51
2023-12-23T00:58:18.975Z,18.51
2023-12-23T00:59:19.019Z,18.51
2023-12-23T01:00:18.987Z,18.51
2023-12-23T01:01:18.947Z,18.50
2023-12-23T01:02:18.969Z,18.50
2023-12-23T01:03:19.021Z,18.50
2023-12-23T01:04:18.947Z,18.51
2023-12-23T01:05:18.975Z,18.50
2023-12-23T01:06:19.011Z,18.51
2023-12-23T01:07:18.887Z,18.51
2023-12-23T01:08:18.947Z,18.50
2023-12-23T01:09:18.877Z,18.51
2023-12-23T01:10:18.876Z,18.51
2023-12-23T01:11:18.994Z,18.51
2023-12-23T01:12:18.858Z,18.51
2023-12-23T01:13:18.814Z,18.51
2023-12-23T01:14:18.859Z,18.50
2023-12-23T01:15:18.827Z,18.50
2023-12-23T01:16:18.814Z,18.50
2023-12-23T01:17:18.823Z,18.51
2023-12-23T01:18:18.831Z,18.51
2023-12-23T01:19:18.800Z,18.48
2023-12-23T01:20:18.855Z,18.50
2023-12-23T01:21:18.731Z,18.50
2023-12-23T01:22:18.747Z,18.50
2023-12-23T01:23:18.737Z,18.50
2023-12-23T01:24:18.695Z,18.50
2023-12-23T01:25:18.701Z,18.50
2023-12-23T01:26:18.749Z,18.50
2023-12-23T01:27:18.691Z,18.50
2023-12-23T01:28:18.681Z,18.48
2023-12-23T01:29:18.671Z,18.51
2023-12-23T01:30:18.687Z,18.48
2023-12-23T01:31:18.622Z,18.48
2023-12-23T01:32:18.659Z,18.48
2023-12-23T01:33:18.668Z,18.48
2023-12-23T01:34:18.588Z,18.48
2023-12-23T01:35:18.743Z,18.50
2023-12-23T01:36:18.570Z,18.48
2023-12-23T01:37:18.589Z,18.48
2023-12-23T01:38:18.571Z,18.48
2023-12-23T01:39:18.565Z,18.48
2023-12-23T01:40:18.525Z,18.50
2023-12-23T01:41:18.581Z,18.48
2023-12-23T01:42:18.500Z,18.50
2023-12-23T01:43:18.523Z,18.48
2023-12-23T01:44:18.569Z,18.48
2023-12-23T01:45:18.471Z,18.48
2023-12-23T01:46:18.457Z,18.48
2023-12-23T01:47:18.507Z,18.48
2023-12-23T01:48:18.641Z,18.48
2023-12-23T01:49:18.479Z,18.48
2023-12-23T01:50:18.477Z,18.48
2023-12-23T01:51:18.442Z,18.48
2023-12-23T01:52:18.423Z,18.48
2023-12-23T01:53:18.404Z,18.48
2023-12-23T01:54:18.384Z,18.48
2023-12-23T01:55:18.377Z,18.50
2023-12-23T01:56:18.565Z,18.47
2023-12-23T01:57:18.369Z,18.48
2023-12-23T01:58:18.362Z,18.48
2023-12-23T01:59:18.390Z,18.47
2023-12-23T02:00:19.420Z,18.48
2023-12-23T02:01:18.375Z,18.48
2023-12-23T02:02:18.390Z,18.47
2023-12-23T02:03:18.328Z,18.47
2023-12-23T02:04:18.283Z,18.48
2023-12-23T02:05:18.368Z,18.48
2023-12-23T02:06:18.276Z,18.48
2023-12-23T02:07:18.239Z,18.47
2023-12-23T02:08:18.297Z,18.47
2023-12-23T02:09:18.212Z,18.48
2023-12-23T02:10:18.211Z,18.47
2023-12-23T02:11:18.254Z,18.47
2023-12-23T02:12:18.181Z,18.47
2023-12-23T02:13:18.614Z,18.47
2023-12-23T02:14:18.196Z,18.47
2023-12-23T02:15:18.227Z,18.47
2023-12-23T02:16:18.166Z,18.47
2023-12-23T02:17:18.233Z,18.47
2023-12-23T02:18:18.312Z,18.48
2023-12-23T02:19:18.132Z,18.47
2023-12-23T02:20:18.162Z,18.47
2023-12-23T02:21:18.087Z,18.47
2023-12-23T02:22:18.077Z,18.45
2023-12-23T02:23:18.194Z,18.47
2023-12-23T02:24:18.095Z,18.45
2023-12-23T02:25:18.072Z,18.47
2023-12-23T02:26:18.145Z,18.47
2023-12-23T02:27:18.028Z,18.47
2023-12-23T02:28:18.011Z,18.47
2023-12-23T02:29:18.128Z,18.47
2023-12-23T02:30:18.125Z,18.45
2023-12-23T02:31:18.006Z,18.45
2023-12-23T02:32:18.135Z,18.47
2023-12-23T02:33:18.028Z,18.47
2023-12-23T02:34:17.953Z,18.47
2023-12-23T02:35:18.016Z,18.45
2023-12-23T02:36:17.927Z,18.47
2023-12-23T02:37:17.944Z,18.47
2023-12-23T02:38:17.947Z,18.45
2023-12-23T02:39:17.907Z,18.45
2023-12-23T02:40:17.884Z,18.45
2023-12-23T02:41:17.969Z,18.45
2023-12-23T02:42:17.870Z,18.47
2023-12-23T02:43:17.938Z,18.47
2023-12-23T02:44:17.894Z,18.47
2023-12-23T02:45:17.852Z,18.47
2023-12-23T02:46:17.841Z,18.47
2023-12-23T02:47:17.832Z,18.45
2023-12-23T02:48:17.979Z,18.47
2023-12-23T02:49:17.795Z,18.45
2023-12-23T02:50:17.884Z,18.47
2023-12-23T02:51:17.760Z,18.47
2023-12-23T02:52:17.762Z,18.45
2023-12-23T02:53:17.758Z,18.47
2023-12-23T02:54:17.749Z,18.45
2023-12-23T02:55:17.725Z,18.45
2023-12-23T02:56:17.863Z,18.45
2023-12-23T02:57:17.735Z,18.47
2023-12-23T02:58:17.692Z,18.47
2023-12-23T02:59:17.690Z,18.45
2023-12-23T03:00:17.669Z,18.45
2023-12-23T03:01:17.677Z,18.45
2023-12-23T03:02:17.740Z,18.45
2023-12-23T03:03:17.674Z,18.45
2023-12-23T03:04:17.651Z,18.47
2023-12-23T03:05:17.705Z,18.45
2023-12-23T03:06:17.670Z,18.45
2023-12-23T03:07:17.614Z,18.44
2023-12-23T03:08:17.738Z,18.47
2023-12-23T03:09:17.570Z,18.44
2023-12-23T03:10:17.560Z,18.45
2023-12-23T03:11:17.599Z,18.45
2023-12-23T03:12:17.568Z,18.45
2023-12-23T03:13:17.528Z,18.47
2023-12-23T03:14:17.603Z,18.45
2023-12-23T03:15:17.546Z,18.45
2023-12-23T03:16:17.497Z,18.47
2023-12-23T03:17:17.639Z,18.45
2023-12-23T03:18:17.543Z,18.45
2023-12-23T03:19:17.463Z,18.45
2023-12-23T03:20:17.571Z,18.47
2023-12-23T03:21:17.470Z,18.47
2023-12-23T03:22:17.444Z,18.45
2023-12-23T03:23:17.472Z,18.45
2023-12-23T03:24:17.409Z,18.45
2023-12-23T03:25:17.402Z,18.47
2023-12-23T03:26:17.398Z,18.47
2023-12-23T03:27:17.404Z,18.45
2023-12-23T03:28:17.379Z,18.47
2023-12-23T03:29:17.431Z,18.45
2023-12-23T03:30:17.386Z,18.47
2023-12-23T03:31:17.338Z,18.47
2023-12-23T03:32:17.353Z,18.45
2023-12-23T03:33:17.544Z,18.45
2023-12-23T03:34:17.347Z,18.45
2023-12-23T03:35:17.397Z,18.45
2023-12-23T03:36:17.303Z,18.45
2023-12-23T03:37:17.285Z,18.47
2023-12-23T03:38:17.309Z,18.45
2023-12-23T03:39:17.250Z,18.47
2023-12-23T03:40:17.283Z,18.45
2023-12-23T03:41:17.323Z,18.47
2023-12-23T03:42:17.220Z,18.45
2023-12-23T03:43:17.211Z,18.44
2023-12-23T03:44:17.396Z,18.45
2023-12-23T03:45:17.207Z,18.45
2023-12-23T03:46:17.179Z,18.45
2023-12-23T03:47:17.290Z,18.47
2023-12-23T03:48:17.237Z,18.44
2023-12-23T03:49:17.255Z,18.45
2023-12-23T03:50:17.210Z,18.45
2023-12-23T03:51:17.139Z,18.45
2023-12-23T03:52:17.139Z,18.45
2023-12-23T03:53:17.168Z,18.45
2023-12-23T03:54:17.117Z,18.45
2023-12-23T03:55:17.086Z,18.45
2023-12-23T03:56:17.162Z,18.45
2023-12-23T03:57:17.061Z,18.45
2023-12-23T03:58:17.125Z,18.45
2023-12-23T03:59:17.119Z,18.45
2023-12-23T04:00:17.077Z,18.45
2023-12-23T04:01:17.115Z,18.45
2023-12-23T04:02:17.141Z,18.45
2023-12-23T04:03:17.068Z,18.45
2023-12-23T04:04:16.999Z,18.45
2023-12-23T04:05:17.081Z,18.44
2023-12-23T04:06:17.053Z,18.45
2023-12-23T04:07:16.956Z,18.45
2023-12-23T04:08:17.092Z,18.45
2023-12-23T04:09:16.942Z,18.45
2023-12-23T04:10:16.928Z,18.45
2023-12-23T04:11:17.063Z,18.45
2023-12-23T04:12:16.964Z,18.47
2023-12-23T04:13:16.947Z,18.45
2023-12-23T04:14:16.914Z,18.47
2023-12-23T04:15:16.878Z,18.45
2023-12-23T04:16:16.863Z,18.45
2023-12-23T04:17:16.960Z,18.45
2023-12-23T04:18:16.949Z,18.45
2023-12-23T04:19:16.878Z,18.45
2023-12-23T04:20:16.866Z,18.45
2023-12-23T04:21:16.811Z,18.45
2023-12-23T04:22:16.823Z,18.45
2023-12-23T04:23:16.854Z,18.44
2023-12-23T04:24:16.807Z,18.45
2023-12-23T04:25:19.107Z,18.45
2023-12-23T04:26:16.802Z,18.45
2023-12-23T04:27:16.784Z,18.45
2023-12-23T04:28:16.735Z,18.45
2023-12-23T04:29:16.848Z,18.44
2023-12-23T04:30:16.889Z,18.45
2023-12-23T04:31:16.834Z,18.45
2023-12-23T04:32:16.718Z,18.44
2023-12-23T04:33:16.757Z,18.45
2023-12-23T04:34:16.708Z,18.45
2023-12-23T04:35:16.792Z,18.45
2023-12-23T04:36:16.647Z,18.47
2023-12-23T04:37:16.642Z,18.45
2023-12-23T04:38:16.685Z,18.45
2023-12-23T04:39:16.666Z,18.45
2023-12-23T04:40:16.636Z,18.45
2023-12-23T04:41:16.652Z,18.45
2023-12-23T04:42:16.580Z,18.45
2023-12-23T04:43:16.597Z,18.45
2023-12-23T04:44:16.630Z,18.45
2023-12-23T04:45:16.554Z,18.45
2023-12-23T04:46:16.572Z,18.45
2023-12-23T04:47:16.560Z,18.44
2023-12-23T04:48:16.590Z,18.44
2023-12-23T04:49:16.538Z,18.45
2023-12-23T04:50:16.572Z,18.45
2023-12-23T04:51:16.486Z,18.45
2023-12-23T04:52:16.506Z,18.45
2023-12-23T04:53:16.512Z,18.45
2023-12-23T04:54:16.480Z,18.44
2023-12-23T04:55:16.477Z,18.47
2023-12-23T04:56:16.593Z,18.45
2023-12-23T04:57:16.422Z,18.44
2023-12-23T04:58:16.437Z,18.44
2023-12-23T04:59:16.444Z,18.44
2023-12-23T05:00:16.392Z,18.45
2023-12-23T05:01:16.420Z,18.45
2023-12-23T05:02:16.482Z,18.44
2023-12-23T05:03:16.416Z,18.45
2023-12-23T05:04:16.350Z,18.45
2023-12-23T05:05:16.476Z,18.45
2023-12-23T05:06:16.427Z,18.45
2023-12-23T05:07:16.339Z,18.45
2023-12-23T05:08:16.359Z,18.44
2023-12-23T05:09:16.293Z,18.44
2023-12-23T05:10:16.282Z,18.45
2023-12-23T05:11:16.394Z,18.45
2023-12-23T05:12:16.282Z,18.44
2023-12-23T05:13:16.284Z,18.44
2023-12-23T05:14:16.289Z,18.44
2023-12-23T05:15:16.231Z,18.45
2023-12-23T05:16:16.223Z,18.44
2023-12-23T05:17:16.267Z,18.44
2023-12-23T05:18:16.291Z,18.44
2023-12-23T05:19:16.297Z,18.45
2023-12-23T05:20:16.264Z,18.44
2023-12-23T05:21:16.174Z,18.44
2023-12-23T05:22:16.191Z,18.44
2023-12-23T05:23:16.168Z,18.44
2023-12-23T05:24:16.135Z,18.44
2023-12-23T05:25:16.134Z,18.45
2023-12-23T05:26:16.201Z,18.44
2023-12-23T05:27:16.134Z,18.44
2023-12-23T05:28:16.122Z,18.44
2023-12-23T05:29:16.114Z,18.44
2023-12-23T05:30:16.137Z,18.44
2023-12-23T05:31:16.076Z,18.44
2023-12-23T05:32:16.118Z,18.44
2023-12-23T05:33:16.125Z,18.44
2023-12-23T05:34:16.066Z,18.42
2023-12-23T05:35:16.126Z,18.44
2023-12-23T05:36:16.011Z,18.45
2023-12-23T05:37:15.994Z,18.44
2023-12-23T05:38:16.056Z,18.45
2023-12-23T05:39:15.983Z,18.44
2023-12-23T05:40:15.991Z,18.44
2023-12-23T05:41:16.052Z,18.45
2023-12-23T05:42:15.943Z,18.45
2023-12-23T05:43:15.934Z,18.45
2023-12-23T05:44:15.983Z,18.45
2023-12-23T05:45:15.912Z,18.45
2023-12-23T05:46:15.901Z,18.45
2023-12-23T05:47:15.958Z,18.45
2023-12-23T05:48:15.918Z,18.45
2023-12-23T05:49:15.870Z,18.47
2023-12-23T05:50:15.883Z,18.47
2023-12-23T05:51:15.855Z,18.47
2023-12-23T05:52:15.865Z,18.47
2023-12-23T05:53:15.879Z,18.47
2023-12-23T05:54:15.822Z,18.47
2023-12-23T05:55:15.841Z,18.45
2023-12-23T05:56:15.804Z,18.45
2023-12-23T05:57:15.786Z,18.47
2023-12-23T05:58:15.805Z,18.47
2023-12-23T05:59:15.806Z,18.45
2023-12-23T06:00:15.798Z,18.47
2023-12-23T06:01:15.778Z,18.47
2023-12-23T06:02:15.752Z,18.47
2023-12-23T06:03:15.754Z,18.47
2023-12-23T06:04:15.739Z,18.47
2023-12-23T06:05:15.753Z,18.47
2023-12-23T06:06:15.745Z,18.47
2023-12-23T06:07:15.680Z,18.48
2023-12-23T06:08:15.707Z,18.47
2023-12-23T06:09:15.687Z,18.47
2023-12-23T06:10:15.674Z,18.47
2023-12-23T06:11:15.648Z,18.45
2023-12-23T06:12:15.623Z,18.47
2023-12-23T06:13:15.616Z,18.47
2023-12-23T06:14:15.712Z,18.47
2023-12-23T06:15:15.623Z,18.47
2023-12-23T06:16:15.611Z,18.47
2023-12-23T06:17:15.615Z,18.47
2023-12-23T06:18:15.604Z,18.48
2023-12-23T06:19:15.666Z,18.48
2023-12-23T06:20:15.673Z,18.47
2023-12-23T06:21:15.550Z,18.47
2023-12-23T06:22:15.517Z,18.47
2023-12-23T06:23:15.614Z,18.47
2023-12-23T06:24:15.498Z,18.47
2023-12-23T06:25:15.492Z,18.45
2023-12-23T06:26:15.525Z,18.47
2023-12-23T06:27:15.467Z,18.45
2023-12-23T06:28:15.467Z,18.45
2023-12-23T06:29:15.490Z,18.45
2023-12-23T06:30:15.480Z,18.47
2023-12-23T06:31:15.441Z,18.47
2023-12-23T06:32:15.496Z,18.45
2023-12-23T06:33:15.518Z,18.47
2023-12-23T06:34:15.447Z,18.47
2023-12-23T06:35:15.494Z,18.47
2023-12-23T06:36:15.372Z,18.47
2023-12-23T06:37:15.393Z,18.47
2023-12-23T06:38:15.415Z,18.45
2023-12-23T06:39:15.384Z,18.45
2023-12-23T06:40:15.331Z,18.47
2023-12-23T06:41:15.370Z,18.47
2023-12-23T06:42:15.310Z,18.45
2023-12-23T06:43:44.194Z,18.45
2023-12-23T06:44:16.330Z,18.47
2023-12-23T06:45:15.276Z,18.45
2023-12-23T06:46:15.267Z,18.47
2023-12-23T06:47:15.272Z,18.47
2023-12-23T06:48:15.350Z,18.47
2023-12-23T06:49:15.472Z,18.47
2023-12-23T06:50:15.312Z,18.45
2023-12-23T06:51:15.214Z,18.45
2023-12-23T06:52:15.206Z,18.45
2023-12-23T06:53:15.241Z,18.45
2023-12-23T06:54:15.182Z,18.45
2023-12-23T06:55:15.174Z,18.47
2023-12-23T06:56:15.197Z,18.45
2023-12-23T06:57:15.155Z,18.47
2023-12-23T06:58:15.140Z,18.45
2023-12-23T06:59:15.176Z,18.45
2023-12-23T07:00:15.119Z,18.47
2023-12-23T07:01:15.176Z,18.45
2023-12-23T07:02:15.224Z,18.47
2023-12-23T07:03:15.087Z,18.47
2023-12-23T07:04:15.144Z,18.47
2023-12-23T07:05:15.128Z,18.45
2023-12-23T07:06:15.093Z,18.45
2023-12-23T07:07:15.094Z,18.48
2023-12-23T07:08:15.119Z,18.45
2023-12-23T07:09:15.024Z,18.45
2023-12-23T07:10:15.011Z,18.45
2023-12-23T07:11:15.012Z,18.45
2023-12-23T07:12:14.989Z,18.44
2023-12-23T07:13:15.003Z,18.45
2023-12-23T07:14:15.026Z,18.47
2023-12-23T07:15:14.990Z,18.47
2023-12-23T07:16:14.941Z,18.45
2023-12-23T07:17:16.146Z,18.45
2023-12-23T07:18:14.995Z,18.45
2023-12-23T07:19:14.923Z,18.45
2023-12-23T07:20:14.977Z,18.47
2023-12-23T07:21:14.914Z,18.47
2023-12-23T07:22:14.876Z,18.45
2023-12-23T07:23:14.956Z,18.47
2023-12-23T07:24:14.862Z,18.45
2023-12-23T07:25:14.848Z,18.45
2023-12-23T07:26:14.903Z,18.45
2023-12-23T07:27:14.842Z,18.47
2023-12-23T07:28:14.811Z,18.48
2023-12-23T07:29:14.873Z,18.45
2023-12-23T07:30:14.834Z,18.47
2023-12-23T07:31:14.780Z,18.47
2023-12-23T07:32:14.807Z,18.47
2023-12-23T07:33:15.322Z,18.47
2023-12-23T07:34:14.794Z,18.45
2023-12-23T07:35:14.791Z,18.47
2023-12-23T07:36:14.759Z,18.45
2023-12-23T07:37:14.714Z,18.47
2023-12-23T07:38:14.806Z,18.45
2023-12-23T07:39:14.696Z,18.47
2023-12-23T07:40:14.693Z,18.45
2023-12-23T07:41:14.730Z,18.45
2023-12-23T07:42:14.680Z,18.47
2023-12-23T07:43:14.653Z,18.47
2023-12-23T07:44:14.713Z,18.45
2023-12-23T07:45:14.641Z,18.47
2023-12-23T07:46:14.651Z,18.47
2023-12-23T07:47:14.663Z,18.47
2023-12-23T07:48:14.716Z,18.47
2023-12-23T07:49:14.649Z,18.45
2023-12-23T07:50:14.641Z,18.47
2023-12-23T07:51:14.568Z,18.47
2023-12-23T07:52:14.588Z,18.45
2023-12-23T07:53:14.652Z,18.47
2023-12-23T07:54:14.648Z,18.47
2023-12-23T07:55:14.528Z,18.45
2023-12-23T07:56:14.587Z,18.48
2023-12-23T07:57:14.518Z,18.45
2023-12-23T07:58:14.496Z,18.47
2023-12-23T07:59:14.579Z,18.47
2023-12-23T08:00:14.474Z,18.47
2023-12-23T08:01:14.482Z,18.47
2023-12-23T08:02:14.511Z,18.45
2023-12-23T08:03:14.478Z,18.47
2023-12-23T08:04:14.486Z,18.47
2023-12-23T08:05:16.992Z,18.47
2023-12-23T08:06:14.509Z,18.47
2023-12-23T08:07:14.401Z,18.47
2023-12-23T08:08:14.433Z,18.45
2023-12-23T08:09:14.423Z,18.48
2023-12-23T08:10:14.396Z,18.47
2023-12-23T08:11:14.419Z,18.47
2023-12-23T08:12:14.367Z,18.47
2023-12-23T08:13:14.337Z,18.47
2023-12-23T08:14:14.429Z,18.47
2023-12-23T08:15:14.353Z,18.47
2023-12-23T08:16:14.301Z,18.47
2023-12-23T08:17:14.366Z,18.47
2023-12-23T08:18:14.352Z,18.47
2023-12-23T08:19:14.354Z,18.47
2023-12-23T08:20:14.342Z,18.47
2023-12-23T08:21:14.260Z,18.47
2023-12-23T08:22:14.238Z,18.47
2023-12-23T08:23:14.263Z,18.47
2023-12-23T08:24:14.280Z,18.47
2023-12-23T08:25:14.211Z,18.47
2023-12-23T08:26:14.225Z,18.45
2023-12-23T08:27:14.190Z,18.47
2023-12-23T08:28:14.176Z,18.45
2023-12-23T08:29:14.204Z,18.47
2023-12-23T08:30:14.195Z,18.47
2023-12-23T08:31:14.235Z,18.47
2023-12-23T08:32:14.161Z,18.45
2023-12-23T08:33:14.171Z,18.47
2023-12-23T08:34:14.237Z,18.47
2023-12-23T08:35:14.144Z,18.47
2023-12-23T08:36:14.120Z,18.45
2023-12-23T08:37:14.082Z,18.45
2023-12-23T08:38:14.084Z,18.47
2023-12-23T08:39:14.093Z,18.47
2023-12-23T08:40:14.081Z,18.47
2023-12-23T08:41:14.056Z,18.47
2023-12-23T08:42:14.028Z,18.45
2023-12-23T08:43:14.016Z,18.47
2023-12-23T08:44:14.068Z,18.45
2023-12-23T08:45:14.027Z,18.47
2023-12-23T08:46:13.982Z,18.48
2023-12-23T08:47:14.022Z,18.48
2023-12-23T08:48:14.105Z,18.48
2023-12-23T08:49:14.065Z,18.47
2023-12-23T08:50:14.007Z,18.47
2023-12-23T08:51:13.933Z,18.45
2023-12-23T08:52:13.926Z,18.47
2023-12-23T08:53:13.909Z,18.47
2023-12-23T08:54:13.898Z,18.47
2023-12-23T08:55:13.923Z,18.47
2023-12-23T08:56:13.945Z,18.47
2023-12-23T08:57:13.893Z,18.48
2023-12-23T08:58:13.854Z,18.47
2023-12-23T08:59:13.863Z,18.47
2023-12-23T09:00:13.831Z,18.47
2023-12-23T09:01:13.840Z,18.48
2023-12-23T09:02:13.878Z,18.50
2023-12-23T09:03:13.834Z,18.51
2023-12-23T09:04:13.788Z,18.51
2023-12-23T09:05:13.877Z,18.51
2023-12-23T09:06:13.890Z,18.51
2023-12-23T09:07:13.780Z,18.51
2023-12-23T09:08:13.833Z,18.51
2023-12-23T09:09:13.836Z,18.51
2023-12-23T09:10:13.752Z,18.52
2023-12-23T09:11:13.776Z,18.52
2023-12-23T09:12:13.768Z,18.52
2023-12-23T09:13:13.688Z,18.51
2023-12-23T09:14:13.728Z,18.52
2023-12-23T09:15:13.675Z,18.52
2023-12-23T09:16:13.656Z,18.54
2023-12-23T09:17:13.704Z,18.54
2023-12-23T09:18:13.772Z,18.52
2023-12-23T09:19:13.704Z,18.52
2023-12-23T09:20:13.743Z,18.51
2023-12-23T09:21:13.609Z,18.54
2023-12-23T09:22:13.601Z,18.54
2023-12-23T09:23:13.698Z,18.54
2023-12-23T09:24:13.604Z,18.55
2023-12-23T09:25:13.594Z,18.54
2023-12-23T09:26:13.597Z,18.55
2023-12-23T09:27:13.552Z,18.55
2023-12-23T09:28:13.559Z,18.54
2023-12-23T09:29:13.616Z,18.54
2023-12-23T09:30:13.591Z,18.54
2023-12-23T09:31:13.543Z,18.54
2023-12-23T09:32:13.569Z,18.55
2023-12-23T09:33:13.652Z,18.52
2023-12-23T09:34:13.531Z,18.54
2023-12-23T09:35:13.547Z,18.52
2023-12-23T09:36:13.451Z,18.54
2023-12-23T09:37:13.481Z,18.54
2023-12-23T09:38:13.490Z,18.52
2023-12-23T09:39:13.423Z,18.54
2023-12-23T09:40:13.409Z,18.54
2023-12-23T09:41:13.510Z,18.57
2023-12-23T09:42:13.413Z,18.62
2023-12-23T09:43:13.378Z,18.66
2023-12-23T09:44:13.505Z,18.70
2023-12-23T09:45:13.359Z,18.75
2023-12-23T09:46:13.388Z,18.80
2023-12-23T09:47:13.404Z,18.82
2023-12-23T09:48:13.586Z,18.87
2023-12-23T09:49:13.380Z,18.90
2023-12-23T09:50:13.334Z,18.91
2023-12-23T09:51:13.319Z,18.92
2023-12-23T09:52:13.283Z,18.95
2023-12-23T09:53:13.355Z,18.98
2023-12-23T09:54:13.280Z,19.02
2023-12-23T09:55:13.271Z,19.02
2023-12-23T09:56:13.263Z,19.06
2023-12-23T09:57:13.274Z,19.06
2023-12-23T09:58:13.218Z,19.07
2023-12-23T09:59:13.231Z,19.08
2023-12-23T10:00:13.220Z,19.07
2023-12-23T10:01:13.263Z,19.08
2023-12-23T10:02:13.227Z,19.11
2023-12-23T10:03:13.187Z,19.13
2023-12-23T10:04:13.185Z,19.13
2023-12-23T10:05:13.256Z,19.13
2023-12-23T10:06:13.202Z,19.14
2023-12-23T10:07:13.146Z,19.14
2023-12-23T10:08:13.136Z,19.14
2023-12-23T10:09:13.106Z,19.16
2023-12-23T10:10:13.088Z,19.14
2023-12-23T10:11:13.115Z,19.18
2023-12-23T10:12:13.082Z,19.16
2023-12-23T10:13:13.087Z,19.14
2023-12-23T10:14:13.096Z,19.18
2023-12-23T10:15:13.036Z,19.18
2023-12-23T10:16:13.059Z,19.18
2023-12-23T10:17:13.111Z,19.16
2023-12-23T10:18:13.121Z,19.18
2023-12-23T10:19:13.063Z,19.18
2023-12-23T10:20:13.011Z,19.18
2023-12-23T10:21:12.976Z,19.19
2023-12-23T10:22:12.961Z,19.19
2023-12-23T10:23:13.059Z,19.19
2023-12-23T10:24:12.936Z,19.19
2023-12-23T10:25:12.925Z,19.19
2023-12-23T10:26:12.963Z,19.19
2023-12-23T10:27:12.905Z,19.21
2023-12-23T10:28:12.912Z,19.21
2023-12-23T10:29:12.915Z,19.21
2023-12-23T10:30:12.947Z,19.22
2023-12-23T10:31:12.876Z,19.23
2023-12-23T10:32:12.897Z,19.23
2023-12-23T10:33:12.902Z,19.23
2023-12-23T10:34:13.149Z,19.23
2023-12-23T10:35:14.753Z,19.25
2023-12-23T10:36:12.852Z,19.23
2023-12-23T10:37:12.806Z,19.25
2023-12-23T10:38:12.852Z,19.26
2023-12-23T10:39:12.782Z,19.25
2023-12-23T10:40:12.805Z,19.25
2023-12-23T10:41:12.793Z,19.23
2023-12-23T10:42:12.737Z,19.23
2023-12-23T10:43:12.731Z,19.23
2023-12-23T10:44:12.804Z,19.23
2023-12-23T10:45:12.739Z,19.23
2023-12-23T10:46:12.729Z,19.25
2023-12-23T10:47:12.727Z,19.23
2023-12-23T10:48:12.766Z,19.23
2023-12-23T10:49:12.843Z,19.25
2023-12-23T10:50:12.741Z,19.23
2023-12-23T10:51:12.644Z,19.22
2023-12-23T10:52:12.634Z,19.22
2023-12-23T10:53:12.675Z,19.23
2023-12-23T10:54:12.618Z,19.23
2023-12-23T10:55:12.601Z,19.23
2023-12-23T10:56:16.295Z,19.26
2023-12-23T10:57:12.581Z,19.26
2023-12-23T10:58:12.618Z,19.28
2023-12-23T10:59:12.649Z,19.28
2023-12-23T11:00:12.547Z,19.29
2023-12-23T11:01:12.601Z,19.28
2023-12-23T11:02:12.581Z,19.29
2023-12-23T11:03:12.561Z,19.32
2023-12-23T11:04:12.566Z,19.33
2023-12-23T11:05:12.576Z,19.39
2023-12-23T11:06:12.579Z,19.41
2023-12-23T11:07:12.479Z,19.44
2023-12-23T11:08:17.197Z,19.46
2023-12-23T11:09:13.489Z,19.48
2023-12-23T11:10:12.443Z,19.51
2023-12-23T11:11:12.521Z,19.51
2023-12-23T11:12:12.422Z,19.54
2023-12-23T11:13:12.410Z,19.54
2023-12-23T11:14:12.513Z,19.56
2023-12-23T11:15:12.431Z,19.56
2023-12-23T11:16:12.376Z,19.56
2023-12-23T11:17:12.422Z,19.58
2023-12-23T11:18:12.393Z,19.58
2023-12-23T11:19:12.432Z,19.58
2023-12-23T11:20:12.416Z,19.56
2023-12-23T11:21:12.331Z,19.58
2023-12-23T11:22:12.314Z,19.58
2023-12-23T11:23:12.362Z,19.58
2023-12-23T11:24:12.298Z,19.58
2023-12-23T11:25:12.311Z,19.58
2023-12-23T11:26:12.350Z,19.58
2023-12-23T11:27:12.260Z,19.59
2023-12-23T11:28:12.286Z,19.58
2023-12-23T11:29:12.280Z,19.58
2023-12-23T11:30:12.356Z,19.59
2023-12-23T11:31:12.232Z,19.56
2023-12-23T11:32:12.247Z,19.51
2023-12-23T11:33:12.277Z,19.50
2023-12-23T11:34:12.284Z,19.47
2023-12-23T11:35:12.252Z,19.46
2023-12-23T11:36:12.223Z,19.44
2023-12-23T11:37:12.153Z,19.43
2023-12-23T11:38:12.197Z,19.41
2023-12-23T11:39:12.241Z,19.41
2023-12-23T11:40:12.124Z,19.40
2023-12-23T11:41:12.171Z,19.40
2023-12-23T11:42:12.102Z,19.40
2023-12-23T11:43:12.118Z,19.39
2023-12-23T11:44:12.219Z,19.40
2023-12-23T11:45:12.075Z,19.39
2023-12-23T11:46:12.082Z,19.39
2023-12-23T11:47:12.099Z,19.39
2023-12-23T11:48:12.114Z,19.37
2023-12-23T11:49:12.176Z,19.40
2023-12-23T11:50:12.099Z,19.39
2023-12-23T11:51:12.067Z,19.39
2023-12-23T11:52:12.035Z,19.39
2023-12-23T11:53:12.066Z,19.39
2023-12-23T11:54:12.080Z,19.39
2023-12-23T11:55:11.987Z,19.37
2023-12-23T11:56:12.263Z,19.36
2023-12-23T11:57:11.980Z,19.37
2023-12-23T11:58:11.981Z,19.36
2023-12-23T11:59:11.953Z,19.39
2023-12-23T12:00:11.950Z,19.40
2023-12-23T12:01:11.966Z,19.40
2023-12-23T12:02:11.913Z,19.41
2023-12-23T12:03:11.913Z,19.40
2023-12-23T12:04:11.989Z,19.40
2023-12-23T12:05:11.954Z,19.40
2023-12-23T12:06:12.031Z,19.40
2023-12-23T12:07:11.835Z,19.39
2023-12-23T12:08:11.938Z,19.40
2023-12-23T12:09:11.820Z,19.39
2023-12-23T12:10:11.805Z,19.37
2023-12-23T12:11:11.863Z,19.39
2023-12-23T12:12:11.780Z,19.39
2023-12-23T12:13:11.771Z,19.40
2023-12-23T12:14:11.820Z,19.41
2023-12-23T12:15:11.751Z,19.41
2023-12-23T12:16:11.768Z,19.43
2023-12-23T12:17:11.772Z,19.43
2023-12-23T12:18:11.819Z,19.43
2023-12-23T12:19:11.816Z,19.44
2023-12-23T12:20:11.781Z,19.41
2023-12-23T12:21:11.708Z,19.43
2023-12-23T12:22:11.725Z,19.44
2023-12-23T12:23:11.723Z,19.43
2023-12-23T12:24:11.676Z,19.41
2023-12-23T12:25:11.662Z,19.39
2023-12-23T12:26:11.650Z,19.36
2023-12-23T12:27:11.651Z,19.32
2023-12-23T12:28:11.612Z,19.28
2023-12-23T12:29:11.643Z,19.26
2023-12-23T12:30:11.719Z,19.22
2023-12-23T12:31:11.588Z,19.19
2023-12-23T12:32:11.614Z,19.14
2023-12-23T12:33:11.625Z,19.11
2023-12-23T12:34:11.588Z,19.08
2023-12-23T12:35:11.714Z,19.04
2023-12-23T12:36:11.530Z,19.02
2023-12-23T12:37:11.516Z,19.00
2023-12-23T12:38:17.329Z,18.98
2023-12-23T12:39:12.495Z,18.95
2023-12-23T12:40:11.516Z,18.92
2023-12-23T12:41:11.505Z,18.91
2023-12-23T12:42:11.472Z,18.91
2023-12-23T12:43:11.485Z,18.87
2023-12-23T12:44:11.488Z,18.87
2023-12-23T12:45:11.440Z,18.84
2023-12-23T12:46:11.437Z,18.85
2023-12-23T12:47:11.481Z,18.84
2023-12-23T12:48:11.627Z,18.82
2023-12-23T12:49:11.435Z,18.82
2023-12-23T12:50:11.435Z,18.82
2023-12-23T12:51:11.371Z,18.80
2023-12-23T12:52:11.361Z,18.78